createdAt,value
2019-04-06T00:00:57.505Z,99.90
2019-04-06T00:04:56.136Z,99.90
2019-04-06T00:08:54.768Z,99.90
2019-04-06T00:12:53.379Z,99.90
2019-04-06T00:17:11.751Z,99.90
2019-04-06T00:21:10.403Z,99.90
2019-04-06T00:25:09.304Z,99.90
2019-04-06T00:29:08.147Z,99.90
2019-04-06T00:33:08.384Z,99.90
2019-04-06T00:37:07.041Z,99.90
2019-04-06T00:41:46.023Z,99.90
2019-04-06T00:45:45.016Z,99.90
2019-04-06T00:49:43.714Z,99.90
2019-04-06T00:53:42.315Z,99.90
2019-04-06T00:57:41.107Z,99.90
2019-04-06T01:01:39.804Z,99.90
2019-04-06T01:05:40.278Z,99.90
2019-04-06T01:09:39.037Z,99.90
2019-04-06T01:13:37.734Z,99.90
2019-04-06T01:17:36.339Z,99.90
2019-04-06T01:21:35.126Z,99.90
2019-04-06T01:25:35.356Z,99.90
2019-04-06T01:29:34.018Z,99.90
2019-04-06T01:33:32.749Z,99.90
2019-04-06T01:37:31.428Z,99.90
2019-04-06T01:41:30.057Z,99.90
2019-04-06T01:45:28.658Z,99.90
2019-04-06T01:53:32.088Z,99.90
2019-04-06T01:57:30.763Z,99.90
2019-04-06T02:01:31.604Z,99.90
2019-04-06T02:05:30.273Z,99.90
2019-04-06T02:09:29.000Z,99.90
2019-04-06T02:13:27.876Z,99.90
2019-04-06T02:17:26.438Z,99.90
2019-04-06T02:21:25.039Z,99.90
2019-04-06T02:25:23.666Z,99.90
2019-04-06T02:29:22.420Z,99.90
2019-04-06T02:33:31.121Z,99.90
2019-04-06T02:37:43.291Z,99.90
2019-04-06T02:41:45.833Z,99.90
2019-04-06T02:45:48.289Z,99.90
2019-04-06T02:49:46.900Z,99.90
2019-04-06T02:53:45.521Z,99.90
2019-04-06T02:57:44.113Z,99.90
2019-04-06T03:01:44.302Z,99.90
2019-04-06T03:05:42.928Z,99.90
2019-04-06T03:09:41.617Z,99.90
2019-04-06T03:13:40.357Z,99.90
2019-04-06T03:17:38.998Z,99.90
2019-04-06T03:21:37.595Z,99.90
2019-04-06T03:25:36.661Z,99.90
2019-04-06T03:29:35.519Z,99.90
2019-04-06T03:33:34.547Z,99.90
2019-04-06T03:37:33.157Z,99.90
2019-04-06T03:41:31.767Z,99.90
2019-04-06T03:45:30.426Z,99.90
2019-04-06T03:49:30.244Z,99.90
2019-04-06T03:53:28.763Z,99.90
2019-04-06T03:57:27.557Z,99.90
2019-04-06T04:01:26.439Z,99.90
2019-04-06T04:05:24.987Z,99.90
2019-04-06T04:09:23.552Z,99.90
2019-04-06T04:13:22.157Z,99.90
2019-04-06T04:17:20.730Z,99.90
2019-04-06T04:21:19.487Z,99.90
2019-04-06T04:25:18.251Z,99.90
2019-04-06T04:29:17.195Z,99.90
2019-04-06T04:33:15.763Z,99.90
2019-04-06T04:37:14.343Z,99.90
2019-04-06T04:41:13.080Z,99.90
2019-04-06T04:45:11.925Z,99.90
2019-04-06T04:49:10.632Z,99.90
2019-04-06T04:53:09.207Z,99.90
2019-04-06T04:57:07.772Z,99.90
2019-04-06T05:01:06.337Z,99.90
2019-04-06T05:05:09.177Z,99.90
2019-04-06T05:09:07.639Z,99.90
2019-04-06T05:13:06.415Z,99.90
2019-04-06T05:17:05.006Z,99.90
2019-04-06T05:21:03.625Z,99.90
2019-04-06T05:25:02.884Z,99.90
2019-04-06T05:29:01.383Z,99.90
2019-04-06T05:32:59.967Z,99.90
2019-04-06T05:36:59.124Z,99.90
2019-04-06T05:41:17.545Z,99.90
2019-04-06T05:45:17.194Z,99.90
2019-04-06T05:49:18.702Z,99.90
2019-04-06T05:53:17.282Z,99.90
2019-04-06T05:57:15.939Z,99.90
2019-04-06T06:01:14.576Z,99.90
2019-04-06T06:05:28.456Z,99.90
2019-04-06T06:09:27.022Z,99.90
2019-04-06T06:13:25.531Z,99.90
2019-04-06T06:17:24.081Z,99.90
2019-04-06T06:21:22.639Z,99.90
2019-04-06T06:25:21.148Z,99.90
2019-04-06T06:29:19.691Z,99.90
2019-04-06T06:33:18.192Z,99.90
2019-04-06T06:37:16.779Z,99.90
2019-04-06T06:41:15.488Z,99.90
2019-04-06T06:45:14.763Z,99.90
2019-04-06T06:49:13.329Z,99.90
2019-04-06T06:53:11.877Z,99.90
2019-04-06T06:57:10.405Z,99.90
2019-04-06T07:01:09.440Z,99.90
2019-04-06T07:05:08.634Z,99.90
2019-04-06T07:09:10.895Z,99.90
2019-04-06T07:13:28.653Z,99.90
2019-04-06T07:17:27.365Z,99.90
2019-04-06T07:21:25.932Z,99.90
2019-04-06T07:25:24.498Z,99.90
2019-04-06T07:29:23.064Z,99.90
2019-04-06T07:33:21.944Z,99.90
2019-04-06T07:37:20.513Z,99.90
2019-04-06T07:41:19.124Z,99.90
2019-04-06T07:45:17.724Z,99.90
2019-04-06T07:49:16.361Z,99.90
2019-04-06T07:53:15.090Z,99.90
2019-04-06T07:57:13.619Z,99.90
2019-04-06T08:01:12.238Z,99.90
2019-04-06T08:05:11.201Z,99.90
2019-04-06T08:09:10.083Z,99.90
2019-04-06T08:13:09.392Z,99.90
2019-04-06T08:17:08.377Z,99.90
2019-04-06T08:21:07.094Z,99.90
2019-04-06T08:25:09.394Z,99.90
2019-04-06T08:29:07.972Z,99.90
2019-04-06T08:33:06.550Z,99.90
2019-04-06T08:37:05.159Z,99.90
2019-04-06T08:41:04.031Z,99.90
2019-04-06T08:45:03.432Z,99.90
2019-04-06T08:49:01.924Z,99.90
2019-04-06T08:53:00.851Z,99.90
2019-04-06T08:56:59.665Z,99.90
2019-04-06T09:00:58.315Z,99.90
2019-04-06T09:04:56.907Z,99.90
2019-04-06T09:09:11.035Z,99.90
2019-04-06T09:13:09.672Z,99.90
2019-04-06T09:17:08.369Z,99.90
2019-04-06T09:21:07.151Z,99.90
2019-04-06T09:25:09.038Z,99.90
2019-04-06T09:29:07.610Z,99.90
2019-04-06T09:33:06.348Z,99.90
2019-04-06T09:37:05.204Z,99.90
2019-04-06T09:41:05.196Z,99.90
2019-04-06T09:45:22.433Z,99.90
2019-04-06T09:49:25.387Z,99.90
2019-04-06T09:53:25.646Z,99.90
2019-04-06T09:57:28.299Z,99.90
2019-04-06T10:01:40.551Z,99.90
2019-04-06T10:05:44.284Z,99.90
2019-04-06T10:09:47.223Z,99.90
2019-04-06T10:13:50.030Z,99.90
2019-04-06T10:18:06.673Z,99.90
2019-04-06T10:22:21.596Z,99.90
2019-04-06T10:26:27.531Z,99.90
2019-04-06T10:30:36.800Z,99.90
2019-04-06T10:34:37.034Z,99.90
2019-04-06T10:38:53.619Z,99.90
2019-04-06T10:42:53.884Z,99.90
2019-04-06T10:47:09.075Z,99.90
2019-04-06T10:51:11.996Z,99.90
2019-04-06T10:55:21.972Z,99.90
2019-04-06T10:59:22.278Z,99.90
2019-04-06T11:03:25.469Z,99.90
2019-04-06T11:07:38.474Z,99.90
2019-04-06T11:11:56.974Z,99.90
2019-04-06T11:16:03.127Z,99.90
2019-04-06T11:20:19.230Z,99.90
2019-04-06T11:24:21.939Z,99.90
2019-04-06T11:28:38.329Z,99.90
2019-04-06T11:32:54.838Z,99.90
2019-04-06T11:37:11.559Z,99.90
2019-04-06T11:41:28.426Z,99.90
2019-04-06T11:45:37.543Z,99.90
2019-04-06T11:49:40.866Z,99.90
2019-04-06T11:53:44.481Z,99.90
2019-04-06T11:57:46.889Z,99.90
2019-04-06T12:01:59.492Z,99.90
2019-04-06T12:06:08.516Z,99.90
2019-04-06T12:10:12.707Z,99.90
2019-04-06T12:14:12.874Z,99.90
2019-04-06T12:18:17.876Z,99.90
2019-04-06T12:22:30.262Z,99.90
2019-04-06T12:30:55.500Z,99.90
2019-04-06T12:34:58.464Z,99.90
2019-04-06T12:39:04.998Z,99.90
2019-04-06T12:43:08.229Z,99.90
2019-04-06T12:47:11.237Z,99.90
2019-04-06T12:51:11.545Z,99.90
2019-04-06T12:55:28.324Z,99.90
2019-04-06T12:59:30.186Z,99.90
2019-04-06T13:03:42.657Z,99.90
2019-04-06T13:07:45.807Z,99.90
2019-04-06T13:11:49.337Z,99.90
2019-04-06T13:16:05.190Z,99.90
2019-04-06T13:20:12.690Z,99.90
2019-04-06T13:24:12.833Z,99.90
2019-04-06T13:28:28.590Z,99.90
2019-04-06T13:32:29.375Z,99.90
2019-04-06T13:36:41.585Z,99.90
2019-04-06T13:40:44.830Z,99.90
2019-04-06T13:44:52.568Z,99.90
2019-04-06T13:49:05.037Z,99.90
2019-04-06T13:53:05.736Z,99.90
2019-04-06T13:57:18.089Z,99.90
2019-04-06T14:01:27.243Z,99.90
2019-04-06T14:05:33.367Z,98.90
2019-04-06T14:09:36.524Z,99.90
2019-04-06T14:13:40.185Z,99.90
2019-04-06T14:17:46.370Z,99.90
2019-04-06T14:22:01.463Z,99.90
2019-04-06T14:26:10.614Z,99.90
2019-04-06T14:30:17.261Z,99.90
2019-04-06T14:34:20.334Z,99.90
2019-04-06T14:39:02.245Z,99.90
2019-04-06T14:42:36.451Z,99.90
2019-04-06T14:46:45.764Z,99.90
2019-04-06T14:50:45.967Z,99.90
2019-04-06T14:54:46.233Z,96.50
2019-04-06T14:59:01.810Z,99.30
2019-04-06T15:03:20.567Z,99.90
2019-04-06T15:07:23.599Z,99.90
2019-04-06T15:11:38.759Z,99.90
2019-04-06T15:15:57.015Z,99.90
2019-04-06T15:20:03.246Z,99.90
2019-04-06T15:24:18.405Z,99.90
2019-04-06T15:28:24.175Z,98.60
2019-04-06T15:32:43.180Z,92.80
2019-04-06T15:37:01.310Z,91.40
2019-04-06T15:41:01.546Z,85.20
2019-04-06T15:45:07.858Z,90.90
2019-04-06T15:49:24.515Z,95.00
2019-04-06T15:53:34.218Z,96.30
2019-04-06T15:57:34.558Z,94.30
2019-04-06T16:01:37.591Z,96.90
2019-04-06T16:05:40.893Z,91.90
2019-04-06T16:10:03.599Z,91.20
2019-04-06T16:14:03.798Z,91.70
2019-04-06T16:18:18.799Z,93.90
2019-04-06T16:22:19.047Z,90.10
2019-04-06T16:26:25.498Z,95.10
2019-04-06T16:30:44.785Z,99.90
2019-04-06T16:34:45.159Z,99.90
2019-04-06T16:39:03.672Z,99.90
2019-04-06T16:43:06.980Z,99.90
2019-04-06T16:47:16.384Z,99.90
2019-04-06T16:51:17.714Z,99.90
2019-04-06T16:55:29.645Z,99.90
2019-04-06T16:59:39.458Z,99.90
2019-04-06T17:03:51.332Z,99.90
2019-04-06T17:08:09.027Z,99.90
2019-04-06T17:12:23.319Z,99.90
2019-04-06T17:16:27.206Z,99.90
2019-04-06T17:20:36.190Z,99.90
2019-04-06T17:24:48.825Z,99.90
2019-04-06T17:29:05.374Z,99.90
2019-04-06T17:33:05.580Z,99.90
2019-04-06T17:37:08.593Z,99.90
2019-04-06T17:41:09.094Z,99.90
2019-04-06T17:45:19.038Z,99.90
2019-04-06T17:49:41.839Z,99.90
2019-04-06T17:53:53.666Z,99.90
2019-04-06T17:57:53.970Z,99.90
2019-04-06T18:01:54.616Z,99.90
2019-04-06T18:06:07.062Z,99.90
2019-04-06T18:10:25.462Z,99.90
2019-04-06T18:14:24.727Z,99.90
2019-04-06T18:22:27.206Z,99.90
2019-04-06T18:26:25.784Z,99.90
2019-04-06T18:30:26.047Z,99.90
2019-04-06T18:34:25.101Z,99.90
2019-04-06T18:38:28.887Z,99.90
2019-04-06T18:42:45.325Z,99.90
2019-04-06T18:46:44.146Z,99.90
2019-04-06T18:50:42.932Z,99.90
2019-04-06T18:54:45.072Z,99.90
2019-04-06T18:58:43.818Z,99.90
2019-04-06T19:02:42.475Z,99.90
2019-04-06T19:06:41.572Z,99.90
2019-04-06T19:10:40.870Z,99.90
2019-04-06T19:14:39.514Z,99.90
2019-04-06T19:18:40.047Z,99.90
2019-04-06T19:22:41.430Z,99.90
2019-04-06T19:26:40.027Z,99.90
2019-04-06T19:30:38.575Z,99.90
2019-04-06T19:34:37.206Z,99.90
2019-04-06T19:38:36.064Z,99.90
2019-04-06T19:42:34.624Z,99.90
2019-04-06T19:46:33.139Z,99.90
2019-04-06T19:50:31.708Z,99.90
2019-04-06T19:54:30.288Z,99.90
2019-04-06T19:58:29.247Z,99.90
2019-04-06T20:02:28.714Z,99.90
2019-04-06T20:06:28.271Z,99.90
2019-04-06T20:10:27.411Z,99.90
2019-04-06T20:14:26.308Z,99.90
2019-04-06T20:18:26.156Z,99.90
2019-04-06T20:22:25.052Z,99.90
2019-04-06T20:26:23.930Z,99.90
2019-04-06T20:30:27.650Z,99.90
2019-04-06T20:34:26.579Z,99.90
2019-04-06T20:38:25.389Z,99.90
2019-04-06T20:42:23.969Z,99.90
2019-04-06T20:46:25.587Z,99.90
2019-04-06T20:50:24.474Z,99.90
2019-04-06T20:54:23.264Z,99.90
2019-04-06T20:58:21.876Z,99.90
2019-04-06T21:02:20.438Z,99.90
2019-04-06T21:06:19.168Z,99.90
2019-04-06T21:10:18.049Z,99.90
2019-04-06T21:14:16.637Z,99.90
2019-04-06T21:18:15.168Z,99.90
2019-04-06T21:22:13.771Z,99.90
2019-04-06T21:26:13.687Z,99.90
2019-04-06T21:30:12.442Z,99.90
2019-04-06T21:34:14.315Z,99.90
2019-04-06T21:38:13.189Z,99.90
2019-04-06T21:42:11.945Z,99.90
2019-04-06T21:46:13.122Z,99.90
2019-04-06T21:50:12.369Z,99.90
2019-04-06T21:54:11.237Z,99.90
2019-04-06T21:58:09.747Z,99.90
2019-04-06T22:02:08.457Z,99.90
2019-04-06T22:06:07.163Z,99.90
2019-04-06T22:10:07.539Z,99.90
2019-04-06T22:14:06.021Z,99.90
2019-04-06T22:18:04.744Z,99.90
2019-04-06T22:22:03.623Z,99.90
2019-04-06T22:26:04.335Z,99.90
2019-04-06T22:30:04.927Z,99.90
2019-04-06T22:34:03.387Z,99.90
2019-04-06T22:38:01.867Z,99.90
2019-04-06T22:42:00.394Z,99.90
2019-04-06T22:46:01.603Z,99.90
2019-04-06T22:50:00.492Z,99.90
2019-04-06T22:53:59.358Z,99.90
2019-04-06T22:58:01.511Z,99.90
2019-04-06T23:02:00.895Z,99.90
2019-04-06T23:06:07.416Z,99.90
2019-04-06T23:10:06.962Z,99.90
2019-04-06T23:14:06.418Z,99.90
2019-04-06T23:18:08.651Z,99.90
2019-04-06T23:22:07.291Z,99.90
2019-04-06T23:26:07.828Z,99.90
2019-04-06T23:30:08.816Z,99.90
2019-04-06T23:34:07.923Z,99.90
2019-04-06T23:38:07.430Z,99.90
2019-04-06T23:42:08.463Z,99.90
2019-04-06T23:46:06.597Z,99.90
2019-04-06T23:50:07.629Z,99.90
2019-04-06T23:54:08.766Z,99.90
2019-04-06T23:58:07.496Z,99.90
